createdAt,value
2022-10-01T00:02:17.795Z,80.47
2022-10-01T00:07:17.737Z,80.60
2022-10-01T00:12:16.921Z,80.79
2022-10-01T00:17:16.589Z,80.90
2022-10-01T00:22:15.824Z,80.94
2022-10-01T00:27:14.820Z,81.07
2022-10-01T00:32:13.773Z,81.10
2022-10-01T00:37:14.237Z,80.94
2022-10-01T00:42:22.993Z,80.86
2022-10-01T00:47:30.498Z,80.99
2022-10-01T00:52:36.229Z,81.09
2022-10-01T00:57:36.970Z,81.11
2022-10-01T01:02:35.376Z,81.13
2022-10-01T01:07:37.482Z,81.07
2022-10-01T01:12:56.685Z,81.04
2022-10-01T01:18:09.491Z,81.16
2022-10-01T01:23:32.188Z,81.31
2022-10-01T01:28:37.548Z,81.26
2022-10-01T01:33:41.158Z,81.29
2022-10-01T01:38:48.688Z,81.36
2022-10-01T01:43:53.855Z,81.42
2022-10-01T01:48:57.787Z,81.42
2022-10-01T01:53:57.348Z,81.57
2022-10-01T01:58:58.495Z,81.68
2022-10-01T02:03:58.606Z,81.71
2022-10-01T02:09:12.351Z,81.89
2022-10-01T02:14:35.468Z,82.13
2022-10-01T02:19:45.408Z,82.19
2022-10-01T02:24:49.706Z,82.24
2022-10-01T02:29:51.848Z,82.32
2022-10-01T02:34:54.017Z,82.31
2022-10-01T02:39:58.230Z,82.41
2022-10-01T02:45:03.191Z,82.53
2022-10-01T02:50:02.615Z,82.69
2022-10-01T02:55:08.817Z,82.79
2022-10-01T03:00:13.956Z,83.00
2022-10-01T03:05:14.834Z,83.12
2022-10-01T03:10:16.535Z,83.25
2022-10-01T03:15:19.384Z,83.31
2022-10-01T03:20:19.304Z,83.35
2022-10-01T03:25:19.176Z,83.33
2022-10-01T03:30:18.542Z,83.39
2022-10-01T03:35:17.682Z,83.45
2022-10-01T03:40:16.916Z,83.49
2022-10-01T03:45:17.931Z,83.50
2022-10-01T03:50:16.585Z,83.50
2022-10-01T03:55:16.055Z,83.48
2022-10-01T04:00:18.507Z,83.56
2022-10-01T04:05:17.197Z,83.68
2022-10-01T04:10:16.296Z,83.78
2022-10-01T04:15:16.943Z,83.80
2022-10-01T04:20:15.893Z,83.74
2022-10-01T04:25:15.804Z,83.70
2022-10-01T04:30:15.651Z,83.61
2022-10-01T04:35:14.561Z,83.50
2022-10-01T04:40:13.784Z,83.50
2022-10-01T04:45:15.846Z,83.56
2022-10-01T04:50:15.908Z,83.67
2022-10-01T04:55:21.020Z,83.71
2022-10-01T05:00:24.629Z,83.82
2022-10-01T05:05:28.210Z,83.89
2022-10-01T05:10:30.200Z,83.94
2022-10-01T05:15:29.494Z,84.06
2022-10-01T05:20:30.494Z,84.16
2022-10-01T05:25:29.695Z,84.24
2022-10-01T05:30:28.950Z,84.31
2022-10-01T05:35:28.778Z,84.38
2022-10-01T05:40:28.886Z,84.49
2022-10-01T05:45:30.901Z,84.58
2022-10-01T05:50:31.383Z,84.66
2022-10-01T05:55:33.544Z,84.81
2022-10-01T06:00:34.373Z,84.94
2022-10-01T06:05:35.488Z,85.10
2022-10-01T06:10:37.062Z,85.31
2022-10-01T06:15:38.906Z,85.48
2022-10-01T06:20:38.732Z,85.68
2022-10-01T06:25:38.559Z,85.88
2022-10-01T06:30:40.850Z,85.93
2022-10-01T06:35:44.632Z,85.99
2022-10-01T06:40:44.421Z,85.88
2022-10-01T06:45:44.160Z,85.82
2022-10-01T06:50:44.038Z,85.81
2022-10-01T06:55:43.728Z,85.67
2022-10-01T07:00:45.129Z,85.39
2022-10-01T07:05:44.688Z,84.97
2022-10-01T07:10:45.775Z,84.67
2022-10-01T07:15:45.682Z,84.32
2022-10-01T07:20:44.782Z,83.75
2022-10-01T07:25:45.148Z,83.16
2022-10-01T07:30:44.743Z,82.86
2022-10-01T07:35:43.920Z,82.39
2022-10-01T07:40:42.109Z,81.73
2022-10-01T07:45:42.767Z,81.10
2022-10-01T07:50:44.024Z,80.47
2022-10-01T07:55:44.157Z,80.00
2022-10-01T08:00:43.984Z,79.37
2022-10-01T08:05:46.644Z,78.46
2022-10-01T08:10:45.263Z,77.57
2022-10-01T08:15:44.234Z,77.36
2022-10-01T08:20:44.442Z,77.00
2022-10-01T08:25:44.819Z,76.82
2022-10-01T08:30:45.210Z,76.58
2022-10-01T08:35:46.038Z,75.82
2022-10-01T08:40:51.294Z,75.11
2022-10-01T08:45:57.584Z,74.57
2022-10-01T08:51:05.045Z,73.56
2022-10-01T08:56:08.410Z,73.65
2022-10-01T09:01:07.630Z,73.62
2022-10-01T09:06:21.328Z,73.25
2022-10-01T09:11:50.240Z,72.54
2022-10-01T09:17:03.790Z,72.22
2022-10-01T09:22:07.693Z,71.76
2022-10-01T09:27:15.434Z,71.90
2022-10-01T09:32:19.499Z,71.35
2022-10-01T09:37:39.748Z,71.21
2022-10-01T09:42:38.826Z,70.48
2022-10-01T09:47:38.012Z,70.14
2022-10-01T09:52:40.881Z,70.00
2022-10-01T09:57:47.655Z,69.85
2022-10-01T10:02:50.119Z,69.38
2022-10-01T10:07:53.965Z,69.47
2022-10-01T10:12:59.285Z,68.93
2022-10-01T10:18:06.594Z,68.29
2022-10-01T10:23:20.565Z,68.79
2022-10-01T10:28:48.216Z,68.90
2022-10-01T10:33:57.659Z,68.74
2022-10-01T10:39:00.426Z,68.48
2022-10-01T10:44:04.970Z,69.13
2022-10-01T10:49:19.380Z,69.21
2022-10-01T10:54:29.672Z,68.94
2022-10-01T10:59:29.130Z,69.01
2022-10-01T11:04:39.555Z,69.41
2022-10-01T11:09:59.309Z,69.74
2022-10-01T11:15:21.035Z,69.89
2022-10-01T11:20:34.812Z,70.25
2022-10-01T11:25:51.322Z,70.26
2022-10-01T11:31:06.634Z,70.69
2022-10-01T11:36:16.032Z,70.97
2022-10-01T11:41:42.632Z,70.53
2022-10-01T11:46:53.631Z,69.95
2022-10-01T11:52:04.098Z,70.32
2022-10-01T11:57:28.702Z,69.92
2022-10-01T12:02:36.439Z,68.39
2022-10-01T12:07:46.254Z,67.35
2022-10-01T12:12:52.508Z,65.26
2022-10-01T12:18:00.178Z,64.45
2022-10-01T12:23:04.143Z,65.11
2022-10-01T12:28:12.321Z,64.63
2022-10-01T12:33:37.389Z,63.62
2022-10-01T12:38:55.637Z,62.57
2022-10-01T12:44:11.571Z,61.40
2022-10-01T12:49:25.990Z,60.77
2022-10-01T12:54:51.844Z,60.38
2022-10-01T13:00:10.168Z,59.36
2022-10-01T13:05:27.996Z,57.98
2022-10-01T13:10:48.967Z,57.58
2022-10-01T13:15:59.256Z,57.86
2022-10-01T13:21:14.671Z,58.23
2022-10-01T13:26:21.206Z,58.51
2022-10-01T13:31:21.786Z,58.74
2022-10-01T13:36:34.504Z,59.31
2022-10-01T13:41:36.813Z,59.76
2022-10-01T13:46:53.523Z,60.37
2022-10-01T13:51:53.215Z,60.81
2022-10-01T13:56:51.905Z,61.44
2022-10-01T14:01:50.663Z,62.01
2022-10-01T14:06:55.000Z,62.26
2022-10-01T14:12:21.170Z,62.52
2022-10-01T14:17:26.583Z,62.95
2022-10-01T14:23:12.503Z,63.06
2022-10-01T14:28:42.977Z,63.42
2022-10-01T14:34:15.947Z,63.72
2022-10-01T14:39:22.045Z,64.18
2022-10-01T14:44:28.241Z,64.36
2022-10-01T14:49:32.006Z,64.75
2022-10-01T14:54:39.257Z,65.11
2022-10-01T14:59:42.484Z,65.28
2022-10-01T15:04:49.666Z,65.38
2022-10-01T15:09:51.435Z,65.39
2022-10-01T15:14:54.715Z,65.64
2022-10-01T15:19:58.791Z,66.08
2022-10-01T15:25:02.749Z,66.35
2022-10-01T15:30:03.048Z,66.55
2022-10-01T15:35:05.687Z,66.71
2022-10-01T15:40:09.801Z,66.92
2022-10-01T15:45:30.167Z,67.18
2022-10-01T15:50:32.620Z,67.53
2022-10-01T15:55:39.134Z,67.89
2022-10-01T16:00:57.101Z,68.18
2022-10-01T16:05:58.648Z,68.49
2022-10-01T16:11:20.924Z,68.86
2022-10-01T16:16:30.643Z,69.26
2022-10-01T16:21:30.569Z,69.68
2022-10-01T16:26:52.519Z,70.04
2022-10-01T16:31:52.891Z,70.33
2022-10-01T16:36:52.358Z,70.58
2022-10-01T16:42:19.125Z,70.82
2022-10-01T16:47:16.492Z,71.07
2022-10-01T16:52:18.230Z,71.27
2022-10-01T16:57:18.181Z,71.49
2022-10-01T17:02:18.950Z,71.69
2022-10-01T17:07:18.335Z,71.89
2022-10-01T17:12:17.803Z,72.16
2022-10-01T17:17:19.503Z,72.42
2022-10-01T17:22:18.596Z,72.64
2022-10-01T17:27:18.043Z,72.83
2022-10-01T17:32:19.128Z,73.06
2022-10-01T17:37:18.751Z,73.22
2022-10-01T17:42:18.321Z,73.40
2022-10-01T17:47:17.070Z,73.61
2022-10-01T17:52:15.623Z,73.79
2022-10-01T17:57:17.627Z,74.00
2022-10-01T18:02:40.538Z,74.23
2022-10-01T18:07:37.866Z,74.50
2022-10-01T18:12:36.973Z,74.68
2022-10-01T18:17:42.928Z,74.84
2022-10-01T18:22:42.697Z,75.01
2022-10-01T18:27:41.600Z,75.19
2022-10-01T18:32:44.554Z,75.40
2022-10-01T18:37:51.483Z,75.60
2022-10-01T18:42:56.579Z,75.81
2022-10-01T18:48:15.927Z,76.03
2022-10-01T18:53:37.309Z,76.24
2022-10-01T18:59:02.384Z,76.46
2022-10-01T19:04:29.983Z,76.66
2022-10-01T19:09:52.110Z,76.88
2022-10-01T19:15:12.973Z,77.04
2022-10-01T19:20:46.325Z,77.21
2022-10-01T19:25:55.470Z,77.44
2022-10-01T19:31:14.680Z,77.61
2022-10-01T19:36:30.399Z,77.82
2022-10-01T19:41:45.749Z,77.99
2022-10-01T19:46:48.486Z,78.18
2022-10-01T19:51:57.205Z,78.36
2022-10-01T19:57:02.452Z,78.52
2022-10-01T20:02:15.958Z,78.67
2022-10-01T20:07:22.908Z,78.83
2022-10-01T20:12:34.578Z,78.94
2022-10-01T20:17:46.476Z,79.06
2022-10-01T20:23:05.709Z,79.19
2022-10-01T20:28:21.221Z,79.34
2022-10-01T20:33:28.493Z,79.52
2022-10-01T20:38:35.041Z,79.72
2022-10-01T20:43:49.137Z,79.88
2022-10-01T20:48:52.883Z,80.03
2022-10-01T20:53:58.757Z,80.15
2022-10-01T20:59:07.124Z,80.31
2022-10-01T21:04:12.269Z,80.49
2022-10-01T21:09:26.351Z,80.66
2022-10-01T21:14:30.286Z,80.85
2022-10-01T21:19:56.513Z,81.18
2022-10-01T21:25:12.083Z,82.03
2022-10-01T21:30:16.637Z,82.32
2022-10-01T21:35:32.087Z,82.55
2022-10-01T21:40:44.700Z,83.05
2022-10-01T21:45:56.298Z,83.51
2022-10-01T21:51:07.468Z,83.67
2022-10-01T21:56:38.621Z,83.71
2022-10-01T22:02:07.307Z,83.70
2022-10-01T22:07:19.243Z,83.64
2022-10-01T22:12:18.871Z,83.55
2022-10-01T22:17:25.258Z,83.45
2022-10-01T22:22:30.952Z,83.40
2022-10-01T22:27:35.421Z,83.53
2022-10-01T22:32:41.753Z,83.72
2022-10-01T22:37:49.543Z,83.70
2022-10-01T22:43:00.066Z,83.77
2022-10-01T22:48:16.895Z,83.86
2022-10-01T22:53:39.382Z,83.96
2022-10-01T22:59:06.587Z,84.08
2022-10-01T23:04:29.343Z,84.20
2022-10-01T23:09:41.678Z,84.25
2022-10-01T23:14:57.164Z,84.40
2022-10-01T23:20:11.074Z,84.50
2022-10-01T23:25:26.044Z,84.62
2022-10-01T23:30:26.134Z,84.68
2022-10-01T23:35:33.297Z,84.73
2022-10-01T23:40:36.318Z,84.77
2022-10-01T23:45:43.392Z,84.82
2022-10-01T23:50:50.829Z,84.87
2022-10-01T23:56:22.716Z,84.92
